Time;durP1;ratioP1;P1;durP2;ratioP2;P2;SDS_P1;SDS_P2;PMS_P1;PMS_P2;Temp;Humidity;BMP_temperature;BMP_pressure;BME280_temperature;BME280_humidity;BME280_pressure;Samples;Min_cycle;Max_cycle;Signal;HPM_P1;HPM_P2
2022/09/04 00:00:25;;;;;;;0.90;0.45;;;;;;;14.35;56.20;101748.53;2061032;28;20591;-76
2022/09/04 00:01:44;;;;;;;1.60;0.60;;;;;;;14.34;56.23;101744.22;2056468;28;20083;-76
2022/09/04 00:03:25;;;;;;;0.50;0.38;;;;;;;14.35;57.22;101745.03;2068775;28;20046;-78
2022/09/04 00:04:38;;;;;;;1.48;0.50;;;;;;;14.35;57.11;101747.72;2042355;28;20456;-78
2022/09/04 00:05:52;;;;;;;2.05;0.95;;;;;;;14.35;57.24;101747.72;2043693;28;20052;-79
2022/09/04 00:07:05;;;;;;;0.55;0.40;;;;;;;14.35;57.15;101747.72;2062859;28;20045;-78
2022/09/04 00:08:46;;;;;;;0.50;0.50;;;;;;;14.34;57.33;101740.69;2073353;28;20053;-79
2022/09/04 00:09:52;;;;;;;1.20;0.40;;;;;;;14.34;57.47;101743.38;2072175;28;20472;-78
2022/09/04 00:11:34;;;;;;;0.50;0.47;;;;;;;14.32;57.44;101740.97;2063657;28;20582;-78
2022/09/04 00:13:09;;;;;;;0.50;0.50;;;;;;;14.33;57.50;101739.06;2047602;29;20051;-78
2022/09/04 00:14:21;;;;;;;0.32;0.32;;;;;;;14.31;57.33;101744.75;2070619;28;20030;-78
2022/09/04 00:15:33;;;;;;;2.33;0.50;;;;;;;14.31;57.36;101749.34;2064018;28;20045;-78
2022/09/04 00:17:00;;;;;;;0.75;0.50;;;;;;;14.29;57.47;101738.00;2057530;28;20046;-78
2022/09/04 00:18:29;;;;;;;1.33;0.50;;;;;;;14.27;57.90;101740.16;2060767;28;20424;-78
2022/09/04 00:19:59;;;;;;;1.10;0.45;;;;;;;14.26;58.09;101747.47;2063225;28;20046;-78
2022/09/04 00:21:13;;;;;;;0.47;0.47;;;;;;;14.24;58.64;101754.22;2066020;28;20053;-78
2022/09/04 00:22:26;;;;;;;1.38;0.63;;;;;;;14.27;58.34;101757.19;2065609;28;20049;-77
2022/09/04 00:23:43;;;;;;;0.60;0.50;;;;;;;14.26;58.54;101752.88;2065594;28;20122;-77
2022/09/04 00:25:05;;;;;;;0.63;0.40;;;;;;;14.26;58.28;101750.16;2082202;28;20045;-76
2022/09/04 00:26:34;;;;;;;2.72;0.75;;;;;;;14.25;58.07;101753.97;2077238;28;20386;-77
2022/09/04 00:27:48;;;;;;;0.47;0.47;;;;;;;14.26;57.70;101754.78;2067894;28;20053;-78
2022/09/04 00:29:02;;;;;;;1.08;0.52;;;;;;;14.25;57.99;101753.13;2063092;28;20050;-77
2022/09/04 00:30:11;;;;;;;0.65;0.40;;;;;;;14.27;57.54;101750.97;2080260;28;20041;-77
2022/09/04 00:31:23;;;;;;;0.90;0.40;;;;;;;14.28;57.79;101755.28;2070716;28;20046;-77
2022/09/04 00:32:49;;;;;;;0.57;0.40;;;;;;;14.27;57.25;101745.56;2057691;28;20050;-78
2022/09/04 00:34:16;;;;;;;1.20;0.43;;;;;;;14.29;57.39;101754.22;2064164;28;20062;-77
2022/09/04 00:35:30;;;;;;;1.05;0.52;;;;;;;14.28;57.12;101739.91;2065432;28;20042;-77
2022/09/04 00:36:39;;;;;;;1.00;0.52;;;;;;;14.28;56.88;101744.47;2057851;28;20487;-77
2022/09/04 00:38:05;;;;;;;1.25;0.50;;;;;;;14.27;57.04;101746.38;2072564;28;20393;-78
2022/09/04 00:39:34;;;;;;;3.30;0.50;;;;;;;14.27;57.20;101749.09;2075628;28;20433;-77
2022/09/04 00:40:55;;;;;;;1.48;0.50;;;;;;;14.28;57.19;101758.84;2083579;28;20096;-78
2022/09/04 00:42:24;;;;;;;0.93;0.40;;;;;;;14.30;56.90;101750.44;2064132;28;20517;-77
2022/09/04 00:43:28;;;;;;;0.60;0.50;;;;;;;14.30;56.83;101745.03;2075696;28;20041;-78
2022/09/04 00:44:49;;;;;;;2.20;0.52;;;;;;;14.28;57.10;101747.19;2078174;28;20045;-77
2022/09/04 00:45:59;;;;;;;0.82;0.52;;;;;;;14.29;56.97;101741.50;2071362;28;20046;-77
2022/09/04 00:47:35;;;;;;;0.50;0.50;;;;;;;14.32;56.63;101742.88;2068678;28;20046;-78
2022/09/04 00:48:48;;;;;;;2.50;0.65;;;;;;;14.31;57.11;101743.94;2060695;28;20042;-78
2022/09/04 00:50:10;;;;;;;0.60;0.38;;;;;;;14.34;56.61;101751.50;2065398;28;20409;-75
2022/09/04 00:51:32;;;;;;;0.55;0.50;;;;;;;14.35;56.44;101740.41;2063655;28;20050;-76
2022/09/04 00:53:11;;;;;;;0.50;0.40;;;;;;;14.36;56.59;101752.03;2058345;28;20055;-76
2022/09/04 00:54:33;;;;;;;0.90;0.60;;;;;;;14.38;56.18;101747.19;2068788;28;20057;-77
2022/09/04 00:56:11;;;;;;;0.70;0.43;;;;;;;14.38;56.28;101749.88;2067162;28;20045;-75
2022/09/04 00:57:30;;;;;;;1.98;0.63;;;;;;;14.38;56.75;101741.75;2068103;28;20049;-76
2022/09/04 00:58:41;;;;;;;;;;;;;;;14.35;57.02;101753.13;2082634;28;20056;-76
2022/09/04 01:00:15;;;;;;;0.50;0.40;;;;;;;14.33;56.87;101753.41;2078933;28;19917;-75
2022/09/04 01:01:28;;;;;;;1.05;0.60;;;;;;;14.34;56.79;101756.91;2071575;28;20053;-75
2022/09/04 01:02:54;;;;;;;0.70;0.50;;;;;;;14.34;56.42;101743.38;2056315;28;20035;-75
2022/09/04 01:04:12;;;;;;;0.68;0.50;;;;;;;14.35;56.50;101742.31;2062931;28;20046;-75
2022/09/04 01:05:23;;;;;;;0.85;0.47;;;;;;;14.36;56.24;101747.44;2062976;28;20054;-76
2022/09/04 01:06:32;;;;;;;1.23;0.50;;;;;;;14.36;56.97;101747.44;2058109;28;20045;-75
2022/09/04 01:08:01;;;;;;;0.60;0.50;;;;;;;14.37;57.16;101753.66;2057874;28;20047;-77
2022/09/04 01:09:39;;;;;;;1.13;0.50;;;;;;;14.39;57.31;101751.50;2066374;28;20057;-75
2022/09/04 01:11:12;;;;;;;0.57;0.43;;;;;;;14.40;57.87;101755.81;2069603;28;20038;-76
2022/09/04 01:12:44;;;;;;;1.70;0.60;;;;;;;14.40;58.12;101768.53;2063444;28;20054;-76
2022/09/04 01:14:09;;;;;;;1.13;0.45;;;;;;;14.38;57.76;101747.19;2073427;28;20843;-78
2022/09/04 01:15:37;;;;;;;0.40;0.35;;;;;;;14.42;57.50;101767.19;2059451;28;20066;-77
2022/09/04 01:16:50;;;;;;;1.35;0.50;;;;;;;14.42;57.95;101758.25;2061975;28;20030;-77
2022/09/04 01:18:12;;;;;;;1.17;0.40;;;;;;;14.39;57.99;101751.50;2073067;28;20417;-78
2022/09/04 01:19:27;;;;;;;0.93;0.60;;;;;;;14.38;57.62;101758.00;2070305;28;20042;-78
2022/09/04 01:20:35;;;;;;;1.35;0.40;;;;;;;14.38;57.23;101758.00;2059188;28;20054;-77
2022/09/04 01:22:09;;;;;;;1.48;0.40;;;;;;;14.38;56.74;101764.22;2065632;28;20038;-77
2022/09/04 01:23:34;;;;;;;0.60;0.47;;;;;;;14.41;56.92;101751.22;2068303;28;20058;-77
2022/09/04 01:25:04;;;;;;;4.03;0.50;;;;;;;14.40;56.82;101757.72;2084352;28;20052;-76
2022/09/04 01:26:29;;;;;;;1.00;0.45;;;;;;;14.38;56.51;101763.41;2082130;28;20381;-78
2022/09/04 01:27:55;;;;;;;2.25;0.55;;;;;;;14.39;57.07;101770.44;2073346;28;20041;-78
2022/09/04 01:29:27;;;;;;;1.67;0.60;;;;;;;14.40;57.19;101758.53;2073281;28;20085;-78
2022/09/04 01:30:54;;;;;;;0.98;0.50;;;;;;;14.38;57.51;101758.81;2068628;28;20440;-78
2022/09/04 01:32:04;;;;;;;1.02;0.40;;;;;;;14.37;57.23;101762.59;2056456;28;20039;-78
2022/09/04 01:33:19;;;;;;;0.60;0.50;;;;;;;14.37;56.96;101759.06;2073084;28;20033;-78
2022/09/04 01:34:44;;;;;;;2.22;0.90;;;;;;;14.38;57.13;101758.00;2055984;28;20540;-76
2022/09/04 01:36:01;;;;;;;1.75;0.50;;;;;;;14.38;56.75;101774.22;2074819;28;20036;-77
2022/09/04 01:37:33;;;;;;;0.82;0.40;;;;;;;14.39;56.57;101762.31;2070073;28;20046;-75
2022/09/04 01:39:10;;;;;;;0.80;0.52;;;;;;;14.37;56.72;101768.00;2064295;28;20046;-76
2022/09/04 01:40:39;;;;;;;0.63;0.40;;;;;;;14.38;56.52;101758.00;2045844;29;20049;-76
2022/09/04 01:42:04;;;;;;;0.60;0.50;;;;;;;14.37;57.14;101762.59;2037392;29;20036;-72
2022/09/04 01:43:19;;;;;;;1.52;0.50;;;;;;;14.36;56.63;101765.56;2064268;28;20631;-73
2022/09/04 01:45:03;;;;;;;1.02;0.40;;;;;;;14.35;56.97;101761.25;2063964;28;20049;-74
2022/09/04 01:46:27;;;;;;;0.30;0.30;;;;;;;14.38;56.98;101758.81;2068692;28;20061;-73
2022/09/04 01:47:57;;;;;;;0.30;0.30;;;;;;;14.34;57.05;101759.59;2072709;28;20022;-73
2022/09/04 01:49:32;;;;;;;1.45;0.63;;;;;;;14.34;57.10;101765.03;2072563;28;20041;-73
2022/09/04 01:50:42;;;;;;;0.40;0.40;;;;;;;14.34;57.23;101759.59;2064975;28;20050;-73
2022/09/04 01:52:00;;;;;;;1.13;0.40;;;;;;;14.35;57.26;101759.34;2058030;28;20069;-73
2022/09/04 01:53:14;;;;;;;0.65;0.60;;;;;;;14.35;57.78;101755.84;2057865;28;20054;-73
2022/09/04 01:55:00;;;;;;;0.90;0.50;;;;;;;14.40;57.66;101760.41;2059872;28;20038;-73
2022/09/04 01:56:31;;;;;;;1.17;0.52;;;;;;;14.41;57.91;101762.88;2071472;28;20052;-73
2022/09/04 01:58:04;;;;;;;3.08;0.70;;;;;;;14.42;58.28;101758.25;2078464;28;20076;-74
2022/09/04 01:59:30;;;;;;;1.00;0.57;;;;;;;14.42;58.46;101760.97;2076819;28;20038;-74
2022/09/04 02:01:00;;;;;;;2.13;0.50;;;;;;;14.42;58.52;101759.06;2075947;28;20041;-74
2022/09/04 02:02:24;;;;;;;1.13;0.52;;;;;;;14.42;59.04;101759.06;2049306;28;20414;-73
2022/09/04 02:03:52;;;;;;;0.68;0.40;;;;;;;14.38;59.09;101764.22;2058386;28;20436;-74
2022/09/04 02:05:17;;;;;;;1.77;0.50;;;;;;;14.37;59.17;101753.66;2064213;28;20084;-72
2022/09/04 02:06:50;;;;;;;1.13;0.43;;;;;;;14.33;59.97;101752.59;2059442;28;20053;-74
2022/09/04 02:08:21;;;;;;;0.80;0.50;;;;;;;14.31;60.26;101757.44;2053639;28;20532;-76
2022/09/04 02:09:59;;;;;;;1.20;0.55;;;;;;;14.31;60.16;101762.88;2064744;28;20046;-77
2022/09/04 02:11:15;;;;;;;0.80;0.55;;;;;;;14.29;60.08;101770.47;2067858;28;20077;-77
2022/09/04 02:12:57;;;;;;;1.05;0.60;;;;;;;14.27;59.64;101757.19;2078418;28;20045;-77
2022/09/04 02:14:42;;;;;;;0.95;0.60;;;;;;;14.29;59.42;101759.66;2081029;28;20382;-76
2022/09/04 02:16:07;;;;;;;0.80;0.50;;;;;;;14.29;59.61;101760.44;2072744;28;20132;-76
2022/09/04 02:17:39;;;;;;;1.77;0.60;;;;;;;14.27;59.42;101759.09;2067758;28;20575;-76
2022/09/04 02:19:20;;;;;;;2.20;0.70;;;;;;;14.26;59.04;101757.47;2060378;28;20050;-76
2022/09/04 02:20:29;;;;;;;0.98;0.60;;;;;;;14.26;59.36;101755.59;2064628;28;20410;-78
2022/09/04 02:22:00;;;;;;;2.28;0.70;;;;;;;14.26;58.95;101760.19;2063059;28;20414;-78
2022/09/04 02:23:39;;;;;;;2.97;0.60;;;;;;;14.25;59.06;101762.09;2065350;28;20046;-78
2022/09/04 02:25:21;;;;;;;1.52;0.70;;;;;;;14.25;59.26;101762.09;2047890;29;20066;-77
2022/09/04 02:26:36;;;;;;;2.95;0.60;;;;;;;14.24;58.84;101756.94;2040980;28;20048;-76
2022/09/04 02:28:02;;;;;;;0.57;0.50;;;;;;;14.24;58.66;101756.94;2071328;28;20046;-76
2022/09/04 02:29:41;;;;;;;1.52;0.88;;;;;;;14.23;58.59;101756.13;2072284;28;20124;-76
2022/09/04 02:30:51;;;;;;;1.05;0.47;;;;;;;14.25;58.45;101761.25;2058419;28;20047;-76
2022/09/04 02:31:53;;;;;;;1.17;0.60;;;;;;;14.23;58.35;101758.84;2057749;28;20529;-76
2022/09/04 02:33:20;;;;;;;3.28;0.65;;;;;;;14.22;57.85;101757.22;2071923;28;20405;-74
2022/09/04 02:35:13;;;;;;;2.65;0.63;;;;;;;14.24;58.25;101756.94;2064571;28;20042;-74
2022/09/04 02:36:59;;;;;;;0.82;0.60;;;;;;;14.21;57.84;101755.59;2063237;28;20520;-76
2022/09/04 02:38:18;;;;;;;0.88;0.60;;;;;;;14.20;57.62;101755.88;2072511;28;20033;-76
2022/09/04 02:40:04;;;;;;;1.17;0.70;;;;;;;14.19;57.60;101763.19;2069632;28;20050;-75
2022/09/04 02:41:26;;;;;;;1.92;0.73;;;;;;;14.18;57.68;101763.44;2062138;28;20049;-75
2022/09/04 02:43:05;;;;;;;4.82;1.05;;;;;;;14.19;57.23;101770.50;2061288;28;20038;-75
2022/09/04 02:44:36;;;;;;;1.45;0.57;;;;;;;14.18;57.36;101764.25;2069583;28;20397;-75
2022/09/04 02:46:02;;;;;;;0.90;0.73;;;;;;;14.17;57.02;101768.03;2064945;28;20422;-75
2022/09/04 02:47:37;;;;;;;1.88;0.70;;;;;;;14.16;57.34;101766.44;2064559;28;20277;-76
2022/09/04 02:49:01;;;;;;;2.35;0.60;;;;;;;14.11;57.44;101767.22;2065137;28;20031;-76
2022/09/04 02:50:20;;;;;;;1.70;0.77;;;;;;;14.13;57.68;101770.47;2063780;28;20054;-76
2022/09/04 02:52:21;;;;;;;2.92;0.80;;;;;;;14.14;57.31;101769.38;2074774;28;20106;-76
2022/09/04 02:53:39;;;;;;;1.05;0.60;;;;;;;14.13;57.70;101770.47;2047551;28;20046;-76
2022/09/04 02:55:15;;;;;;;1.10;0.60;;;;;;;14.14;57.08;101763.97;2059927;28;20055;-76
2022/09/04 02:56:39;;;;;;;1.05;0.68;;;;;;;14.14;57.17;101763.97;2044460;28;20054;-77
2022/09/04 02:58:10;;;;;;;3.63;0.70;;;;;;;14.08;57.74;101758.84;2047426;28;20423;-75
2022/09/04 02:59:34;;;;;;;0.80;0.60;;;;;;;14.05;57.63;101765.63;2069363;28;20523;-76
2022/09/04 03:00:42;;;;;;;1.17;0.50;;;;;;;14.07;57.90;101774.28;2074742;28;20513;-76
2022/09/04 03:02:27;;;;;;;1.45;0.80;;;;;;;14.08;58.12;101766.97;2074555;28;20037;-76
2022/09/04 03:03:43;;;;;;;1.17;0.68;;;;;;;14.08;57.71;101770.47;2055974;28;20058;-76
2022/09/04 03:05:03;;;;;;;0.80;0.43;;;;;;;14.10;57.70;101762.91;2058284;28;20059;-76
2022/09/04 03:06:55;;;;;;;2.67;0.60;;;;;;;14.11;57.81;101758.31;2064434;28;20539;-76
2022/09/04 03:08:36;;;;;;;2.70;0.70;;;;;;;14.12;57.80;101759.91;2063176;28;20038;-77
2022/09/04 03:09:54;;;;;;;1.83;0.65;;;;;;;14.12;57.32;101766.16;2077845;28;20061;-76
2022/09/04 03:11:17;;;;;;;0.80;0.63;;;;;;;14.12;57.57;101766.16;2069703;28;20456;-76
2022/09/04 03:12:38;;;;;;;0.73;0.52;;;;;;;14.13;57.39;101761.56;2075942;28;20049;-76
2022/09/04 03:14:01;;;;;;;1.05;0.70;;;;;;;14.12;57.17;101773.44;2077326;28;20033;-76
2022/09/04 03:15:12;;;;;;;4.40;0.70;;;;;;;14.10;57.24;101762.91;2069278;28;20038;-76
2022/09/04 03:16:36;;;;;;;4.47;0.70;;;;;;;14.09;57.31;101761.31;2057369;28;20050;-75
2022/09/04 03:18:00;;;;;;;1.10;0.68;;;;;;;14.06;57.18;101763.72;2064355;28;20030;-76
2022/09/04 03:19:54;;;;;;;2.95;0.60;;;;;;;14.07;56.94;101766.16;2058936;28;20531;-76
2022/09/04 03:21:15;;;;;;;4.63;0.70;;;;;;;14.06;57.20;101767.25;2063407;28;20583;-76
2022/09/04 03:22:42;;;;;;;3.17;0.70;;;;;;;14.07;57.21;101758.06;2058050;28;20050;-75
2022/09/04 03:24:02;;;;;;;1.45;0.50;;;;;;;14.08;57.15;101764.25;2062389;28;20400;-75
2022/09/04 03:25:15;;;;;;;3.03;0.82;;;;;;;14.07;57.23;101763.47;2064116;28;20034;-75
2022/09/04 03:26:30;;;;;;;2.72;0.68;;;;;;;14.07;57.46;101760.75;2066496;28;20069;-75
2022/09/04 03:27:34;;;;;;;0.88;0.60;;;;;;;14.07;57.79;101766.16;2067622;28;20048;-75
2022/09/04 03:28:50;;;;;;;1.55;0.80;;;;;;;14.08;57.56;101761.56;2080067;28;20050;-75
2022/09/04 03:30:02;;;;;;;3.95;0.80;;;;;;;14.08;57.73;101762.38;2071577;28;20034;-76
2022/09/04 03:31:27;;;;;;;2.10;0.65;;;;;;;14.08;57.82;101759.66;2057506;28;20050;-75
2022/09/04 03:32:40;;;;;;;1.20;0.68;;;;;;;14.09;57.54;101766.72;2067355;28;20144;-76
2022/09/04 03:33:55;;;;;;;1.40;0.70;;;;;;;14.09;57.92;101766.72;2064629;28;20046;-76
2022/09/04 03:35:16;;;;;;;2.22;0.90;;;;;;;14.08;57.84;101775.09;2066337;28;20599;-76
2022/09/04 03:36:27;;;;;;;;;;;;;;;14.07;57.83;101774.28;2072581;28;20041;-76
2022/09/04 03:37:35;;;;;;;1.55;0.90;;;;;;;14.07;57.81;101773.47;2063461;28;19924;-76
2022/09/04 03:39:02;;;;;;;1.17;0.70;;;;;;;14.05;57.69;101770.22;2073511;28;20037;-75
2022/09/04 03:40:09;;;;;;;1.85;0.82;;;;;;;14.05;57.53;101776.44;2073169;28;20042;-74
2022/09/04 03:41:29;;;;;;;2.78;0.77;;;;;;;14.04;57.66;101772.13;2065157;28;20067;-73
2022/09/04 03:42:53;;;;;;;1.38;0.60;;;;;;;14.03;57.90;101777.78;2067587;28;20057;-74
2022/09/04 03:43:54;;;;;;;;;;;;;;;14.02;57.75;101779.69;2072325;28;20042;-74
2022/09/04 03:45:18;;;;;;;0.90;0.60;;;;;;;14.04;57.85;101780.22;2079632;28;19917;-74
2022/09/04 03:46:38;;;;;;;0.88;0.65;;;;;;;14.04;58.10;101772.13;2067802;28;20069;-75
2022/09/04 03:48:13;;;;;;;3.58;0.60;;;;;;;14.03;58.32;101775.06;2064040;28;20620;-76
2022/09/04 03:49:50;;;;;;;3.45;0.60;;;;;;;14.02;58.25;101776.97;2067697;28;20846;-75
2022/09/04 03:51:06;;;;;;;0.55;0.45;;;;;;;14.03;57.54;101778.63;2070252;28;20501;-74
2022/09/04 03:52:34;;;;;;;0.88;0.60;;;;;;;14.04;57.71;101776.72;2065867;28;20054;-73
2022/09/04 03:53:44;;;;;;;1.10;0.80;;;;;;;14.05;57.58;101781.84;2067228;28;20050;-73
2022/09/04 03:54:59;;;;;;;;;;;;;;;14.05;57.15;101786.44;2071067;28;20057;-73
2022/09/04 03:56:11;;;;;;;0.98;0.55;;;;;;;14.04;57.12;101785.63;2071992;28;19924;-73
2022/09/04 03:58:11;;;;;;;0.73;0.50;;;;;;;14.05;57.16;101787.25;2079645;28;20451;-72
2022/09/04 03:59:42;;;;;;;1.40;0.50;;;;;;;14.05;56.30;101786.44;2055268;28;20126;-73
2022/09/04 04:00:59;;;;;;;0.60;0.40;;;;;;;14.06;56.55;101786.19;2044663;28;20087;-76
2022/09/04 04:02:09;;;;;;;1.23;0.70;;;;;;;14.04;56.76;101785.63;2045385;28;20499;-76
2022/09/04 04:03:13;;;;;;;5.70;1.00;;;;;;;14.06;56.55;101788.06;2047426;28;20058;-74
2022/09/04 04:04:45;;;;;;;2.22;0.55;;;;;;;14.05;56.87;101784.53;2035285;28;20494;-74
2022/09/04 04:05:58;;;;;;;4.85;0.60;;;;;;;14.05;55.73;101789.16;2064037;28;20037;-74
2022/09/04 04:07:37;;;;;;;3.22;0.60;;;;;;;14.08;56.05;101791.31;2063979;28;20526;-77
2022/09/04 04:09:10;;;;;;;0.65;0.50;;;;;;;14.07;55.68;101795.91;2081399;28;20048;-74
2022/09/04 04:10:32;;;;;;;1.10;0.50;;;;;;;14.09;55.88;101804.56;2051591;28;20050;-75
2022/09/04 04:11:52;;;;;;;1.23;0.60;;;;;;;14.11;55.59;101801.59;2064939;28;20037;-75
2022/09/04 04:13:23;;;;;;;1.85;0.65;;;;;;;14.11;55.86;101799.69;2061158;28;20037;-76
2022/09/04 04:14:37;;;;;;;1.75;0.55;;;;;;;14.14;55.45;101812.66;2060842;28;20532;-75
2022/09/04 04:16:00;;;;;;;3.90;0.70;;;;;;;14.18;55.92;101807.53;2063150;28;20038;-76
2022/09/04 04:17:26;;;;;;;0.52;0.50;;;;;;;14.26;55.45;101803.47;2073920;28;20056;-76
2022/09/04 04:18:43;;;;;;;2.05;0.55;;;;;;;14.45;54.97;101809.13;2060116;28;20039;-75
2022/09/04 04:20:20;;;;;;;0.43;0.43;;;;;;;14.54;54.58;101808.31;2062391;28;20034;-77
2022/09/04 04:22:07;;;;;;;1.63;0.50;;;;;;;14.49;54.69;101808.28;2063054;28;20058;-77
2022/09/04 04:23:19;;;;;;;1.45;0.57;;;;;;;14.44;54.53;101811.03;2055854;28;20441;-76
2022/09/04 04:24:39;;;;;;;0.85;0.52;;;;;;;14.36;54.56;101811.56;2054550;28;20073;-76
2022/09/04 04:25:50;;;;;;;3.20;0.80;;;;;;;14.31;53.68;101816.97;2066282;28;20512;-77
2022/09/04 04:27:32;;;;;;;1.98;0.60;;;;;;;14.29;54.13;101813.75;2072439;28;20034;-78
2022/09/04 04:28:58;;;;;;;2.08;0.43;;;;;;;14.31;53.66;101814.25;2080203;28;20076;-77
2022/09/04 04:30:13;;;;;;;2.83;0.52;;;;;;;14.32;54.18;101805.09;2071875;28;20488;-77
2022/09/04 04:31:34;;;;;;;3.78;0.60;;;;;;;14.33;53.88;101815.63;2065148;28;20047;-77
2022/09/04 04:32:54;;;;;;;0.40;0.40;;;;;;;14.34;53.95;101811.00;2056709;28;20054;-77
2022/09/04 04:34:07;;;;;;;1.33;0.50;;;;;;;14.33;53.95;101820.22;2066582;28;20034;-76
2022/09/04 04:35:38;;;;;;;1.58;0.55;;;;;;;14.35;54.00;101821.59;2073556;28;20076;-76
2022/09/04 04:37:04;;;;;;;1.02;0.40;;;;;;;14.35;53.92;101831.59;2080046;28;20056;-77
2022/09/04 04:38:23;;;;;;;0.55;0.40;;;;;;;14.40;53.85;101823.47;2079735;28;20053;-78
2022/09/04 04:39:43;;;;;;;0.50;0.40;;;;;;;14.51;53.78;101824.28;2064207;28;20042;-77
2022/09/04 04:41:05;;;;;;;2.05;0.40;;;;;;;14.63;53.41;101821.28;2074083;28;20454;-76
2022/09/04 04:42:22;;;;;;;0.93;0.52;;;;;;;14.86;53.14;101823.38;2062511;28;20490;-77
2022/09/04 04:43:36;;;;;;;1.77;0.60;;;;;;;15.10;52.64;101822.72;2061393;28;20049;-79
2022/09/04 04:46:50;;;;;;;2.42;0.60;;;;;;;15.64;51.27;101821.91;2072372;28;20044;-76
2022/09/04 04:48:14;;;;;;;0.88;0.50;;;;;;;15.81;50.54;101819.63;2072448;28;20391;-77
2022/09/04 04:49:33;;;;;;;2.60;0.40;;;;;;;15.89;50.40;101813.63;2060203;28;20639;-77
2022/09/04 04:51:10;;;;;;;1.42;0.60;;;;;;;16.11;50.27;101820.47;2069794;28;20050;-78
2022/09/04 04:52:17;;;;;;;0.75;0.50;;;;;;;16.22;49.75;101813.88;2073096;28;20058;-77
2022/09/04 04:53:34;;;;;;;4.03;0.60;;;;;;;16.36;49.66;101812.13;2065351;28;20053;-75
2022/09/04 04:54:51;;;;;;;1.15;0.70;;;;;;;16.60;49.19;101822.19;2082318;28;20049;-77
2022/09/04 04:56:04;;;;;;;5.57;0.60;;;;;;;16.64;49.17;101824.00;2070916;28;20038;-74
2022/09/04 04:57:20;;;;;;;;;;;;;;;16.83;48.54;101826.81;2068351;28;20035;-74
2022/09/04 04:58:31;;;;;;;1.23;0.57;;;;;;;16.84;47.57;101825.75;2064598;28;20312;-75
2022/09/04 04:59:53;;;;;;;2.78;0.60;;;;;;;16.96;47.76;101824.50;2065882;28;20049;-75
2022/09/04 05:01:27;;;;;;;5.07;0.70;;;;;;;17.11;47.19;101833.28;2073403;28;20033;-74
2022/09/04 05:02:42;;;;;;;2.85;0.50;;;;;;;17.17;46.71;101839.44;2070251;28;20045;-74
2022/09/04 05:03:52;;;;;;;0.75;0.40;;;;;;;17.17;45.76;101827.78;2075111;28;20052;-72
2022/09/04 05:05:06;;;;;;;1.10;0.50;;;;;;;17.22;46.06;101833.97;2073317;28;20034;-73
2022/09/04 05:06:30;;;;;;;2.05;0.50;;;;;;;17.33;45.49;101835.44;2074780;28;20030;-73
2022/09/04 05:07:59;;;;;;;3.15;1.33;;;;;;;17.48;45.78;101830.88;2065099;28;20030;-73
2022/09/04 05:09:44;;;;;;;0.93;0.50;;;;;;;17.68;44.74;101838.75;2071912;28;20036;-73
2022/09/04 05:11:43;;;;;;;0.93;0.60;;;;;;;17.87;44.22;101837.94;2051769;28;20070;-73
2022/09/04 05:13:16;;;;;;;1.33;0.45;;;;;;;18.11;43.49;101848.72;2055361;28;20098;-74
2022/09/04 05:14:42;;;;;;;0.60;0.50;;;;;;;18.28;43.29;101841.63;2073186;28;20046;-73
2022/09/04 05:15:44;;;;;;;2.05;0.50;;;;;;;18.26;42.76;101835.66;2068375;28;20037;-72
2022/09/04 05:17:13;;;;;;;0.40;0.40;;;;;;;18.44;42.79;101847.59;2063968;28;20397;-74
2022/09/04 05:18:26;;;;;;;2.55;0.38;;;;;;;18.78;42.23;101832.00;2068249;28;20042;-74
2022/09/04 05:20:14;;;;;;;1.85;0.50;;;;;;;18.66;42.09;101844.19;2067091;28;20502;-74
2022/09/04 05:21:36;;;;;;;2.20;0.45;;;;;;;18.70;42.24;101847.13;2079592;28;20544;-74
2022/09/04 05:22:43;;;;;;;0.93;0.50;;;;;;;18.98;41.97;101850.69;2073127;28;20045;-74
2022/09/04 05:24:10;;;;;;;2.47;0.70;;;;;;;19.37;41.71;101843.84;2065109;28;20047;-73
2022/09/04 05:25:20;;;;;;;0.80;0.40;;;;;;;19.50;41.11;101851.19;2063569;28;20435;-73
2022/09/04 05:26:35;;;;;;;0.80;0.50;;;;;;;19.78;40.59;101846.50;2071140;28;20038;-73
2022/09/04 05:27:41;;;;;;;0.98;0.80;;;;;;;19.81;40.72;101848.59;2082241;28;20041;-73
2022/09/04 05:28:57;;;;;;;1.17;0.52;;;;;;;20.04;40.25;101837.69;2063556;28;20034;-73
2022/09/04 05:30:13;;;;;;;2.97;1.02;;;;;;;20.04;40.40;101846.66;2052571;28;20035;-72
2022/09/04 05:31:36;;;;;;;0.73;0.50;;;;;;;19.94;39.96;101848.84;2074537;28;20042;-73
2022/09/04 05:32:59;;;;;;;3.03;0.60;;;;;;;20.20;39.33;101840.81;2072067;28;20512;-73
2022/09/04 05:34:06;;;;;;;0.55;0.45;;;;;;;20.38;39.00;101846.06;2072538;28;20042;-72
2022/09/04 05:35:36;;;;;;;2.28;0.52;;;;;;;20.57;38.90;101839.59;2055838;28;20058;-73
2022/09/04 05:36:59;;;;;;;3.22;0.63;;;;;;;20.71;37.78;101844.94;2032961;29;20092;-72
2022/09/04 05:38:09;;;;;;;6.03;0.68;;;;;;;20.89;38.16;101838.44;2053835;28;20059;-72
2022/09/04 05:39:17;;;;;;;0.68;0.50;;;;;;;21.42;37.82;101842.91;2079797;28;20049;-74
2022/09/04 05:40:42;;;;;;;0.45;0.45;;;;;;;21.74;36.12;101838.88;2073054;28;20049;-74
2022/09/04 05:42:09;;;;;;;1.55;1.08;;;;;;;21.87;36.14;101848.03;2067609;28;20045;-74
2022/09/04 05:43:29;;;;;;;2.05;0.80;;;;;;;22.08;35.78;101847.38;2056833;28;20038;-74
2022/09/04 05:44:45;;;;;;;1.88;0.70;;;;;;;22.12;35.98;101843.66;2059432;28;20035;-72
2022/09/04 05:46:17;;;;;;;0.60;0.40;;;;;;;22.47;35.81;101848.25;2066203;28;20064;-72
2022/09/04 05:47:35;;;;;;;1.70;0.60;;;;;;;22.52;35.42;101843.41;2071647;28;20033;-72
2022/09/04 05:49:07;;;;;;;1.77;0.60;;;;;;;22.56;35.55;101840.81;2088990;28;20045;-73
2022/09/04 05:50:34;;;;;;;1.63;0.82;;;;;;;22.65;35.63;101838.84;2060921;28;20046;-73
2022/09/04 05:51:51;;;;;;;0.47;0.47;;;;;;;22.87;35.14;101840.50;2074222;28;20415;-72
2022/09/04 05:53:26;;;;;;;0.57;0.50;;;;;;;23.01;34.60;101843.03;2071778;28;20450;-71
2022/09/04 05:54:45;;;;;;;0.63;0.45;;;;;;;22.93;34.33;101847.41;2066999;28;20050;-74
2022/09/04 05:56:10;;;;;;;5.00;0.60;;;;;;;23.47;34.11;101846.78;2072935;28;20381;-71
2022/09/04 05:57:49;;;;;;;0.88;0.70;;;;;;;23.87;33.69;101855.34;2072812;28;20393;-71
2022/09/04 05:58:58;;;;;;;6.22;0.60;;;;;;;24.58;32.97;101851.50;2068612;28;20046;-71
2022/09/04 06:00:15;;;;;;;0.60;0.50;;;;;;;24.96;32.31;101850.38;2057116;28;20529;-70
2022/09/04 06:01:50;;;;;;;1.33;0.70;;;;;;;25.36;31.84;101846.91;2060375;28;20037;-72
2022/09/04 06:03:34;;;;;;;0.70;0.57;;;;;;;25.75;30.89;101853.53;2073127;28;20065;-72
2022/09/04 06:04:59;;;;;;;0.60;0.50;;;;;;;25.97;30.35;101854.94;2071455;28;20052;-73
2022/09/04 06:06:21;;;;;;;2.30;0.50;;;;;;;26.00;30.19;101858.97;2067330;28;20034;-73
2022/09/04 06:07:34;;;;;;;0.43;0.43;;;;;;;26.02;30.05;101851.16;2064788;28;20457;-71
2022/09/04 06:09:00;;;;;;;1.10;0.60;;;;;;;26.34;29.20;101863.03;2049886;28;20046;-71
2022/09/04 06:10:35;;;;;;;2.03;0.50;;;;;;;26.79;29.22;101861.78;2066187;28;20057;-71
2022/09/04 06:12:16;;;;;;;1.65;0.75;;;;;;;26.50;28.24;101860.28;2070346;28;20045;-71
2022/09/04 06:13:44;;;;;;;0.75;0.60;;;;;;;27.45;27.64;101866.47;2068105;28;20053;-73
2022/09/04 06:15:06;;;;;;;2.20;0.50;;;;;;;28.51;26.93;101857.06;2064457;28;20038;-73
2022/09/04 06:16:16;;;;;;;0.93;0.70;;;;;;;28.00;26.32;101869.19;2075438;28;20046;-72
2022/09/04 06:18:08;;;;;;;0.57;0.40;;;;;;;27.99;26.32;101856.50;2070421;28;20494;-71
2022/09/04 06:19:32;;;;;;;0.50;0.50;;;;;;;27.59;26.51;101865.97;2079411;28;20481;-71
2022/09/04 06:20:59;;;;;;;0.52;0.50;;;;;;;28.06;26.01;101862.19;2067855;28;20037;-72
2022/09/04 06:22:25;;;;;;;0.35;0.35;;;;;;;28.10;26.11;101854.75;2073099;28;20034;-70
2022/09/04 06:23:41;;;;;;;0.47;0.47;;;;;;;28.54;25.90;101859.09;2072291;28;20034;-70
2022/09/04 06:24:50;;;;;;;2.83;0.75;;;;;;;28.95;24.75;101862.88;2054726;28;20106;-72
2022/09/04 06:26:05;;;;;;;2.03;0.63;;;;;;;29.23;24.02;101865.28;2066624;28;20042;-68
2022/09/04 06:27:47;;;;;;;2.95;0.50;;;;;;;29.13;24.44;101856.81;2077710;28;20050;-71
2022/09/04 06:28:53;;;;;;;6.38;0.68;;;;;;;29.86;23.62;101866.50;2073860;28;20041;-71
2022/09/04 06:30:00;;;;;;;;;;;;;;;29.40;24.17;101857.59;2072731;28;20057;-71
2022/09/04 06:31:18;;;;;;;1.27;0.50;;;;;;;30.48;23.29;101863.13;2073768;28;19914;-70